sensor_id;sensor_type;location;lat;lon;timestamp;temperature;humidity
30250;DHT22;17064;47.974;13.826;2023-05-19T00:04:26;7.90;99.90
30250;DHT22;17064;47.974;13.826;2023-05-19T00:09:27;8.00;99.90
30250;DHT22;17064;47.974;13.826;2023-05-19T00:14:28;7.90;99.90
30250;DHT22;17064;47.974;13.826;2023-05-19T00:19:29;7.90;99.90
30250;DHT22;17064;47.974;13.826;2023-05-19T00:24:31;8.00;99.90
30250;DHT22;17064;47.974;13.826;2023-05-19T00:29:32;8.00;99.90
30250;DHT22;17064;47.974;13.826;2023-05-19T00:34:33;8.00;99.90
30250;DHT22;17064;47.974;13.826;2023-05-19T00:39:34;8.00;99.90
30250;DHT22;17064;47.974;13.826;2023-05-19T00:44:39;8.00;99.90
30250;DHT22;17064;47.974;13.826;2023-05-19T00:49:40;7.90;99.90
30250;DHT22;17064;47.974;13.826;2023-05-19T00:54:41;7.90;99.90
30250;DHT22;17064;47.974;13.826;2023-05-19T00:59:42;7.90;99.90
30250;DHT22;17064;47.974;13.826;2023-05-19T01:04:43;7.90;99.90
30250;DHT22;17064;47.974;13.826;2023-05-19T01:09:46;8.00;99.90
30250;DHT22;17064;47.974;13.826;2023-05-19T01:14:46;8.00;99.90
30250;DHT22;17064;47.974;13.826;2023-05-19T01:20:00;7.90;99.90
30250;DHT22;17064;47.974;13.826;2023-05-19T01:30:35;7.80;99.90
30250;DHT22;17064;47.974;13.826;2023-05-19T01:35:37;7.90;99.90
30250;DHT22;17064;47.974;13.826;2023-05-19T01:40:40;7.80;99.90
30250;DHT22;17064;47.974;13.826;2023-05-19T01:45:41;7.80;99.90
30250;DHT22;17064;47.974;13.826;2023-05-19T01:50:43;7.80;99.90
30250;DHT22;17064;47.974;13.826;2023-05-19T01:55:47;7.90;99.90
30250;DHT22;17064;47.974;13.826;2023-05-19T02:00:59;7.80;99.90
30250;DHT22;17064;47.974;13.826;2023-05-19T02:06:39;7.80;99.90
30250;DHT22;17064;47.974;13.826;2023-05-19T02:12:00;7.80;99.90
30250;DHT22;17064;47.974;13.826;2023-05-19T02:17:03;7.80;99.90
30250;DHT22;17064;47.974;13.826;2023-05-19T02:22:05;7.80;99.90
30250;DHT22;17064;47.974;13.826;2023-05-19T02:27:05;7.80;99.90
30250;DHT22;17064;47.974;13.826;2023-05-19T02:32:06;7.70;99.90
30250;DHT22;17064;47.974;13.826;2023-05-19T02:37:07;7.70;99.90
30250;DHT22;17064;47.974;13.826;2023-05-19T02:42:09;7.70;99.90
30250;DHT22;17064;47.974;13.826;2023-05-19T02:47:09;7.80;99.90
30250;DHT22;17064;47.974;13.826;2023-05-19T02:52:10;7.70;99.90
30250;DHT22;17064;47.974;13.826;2023-05-19T02:57:11;7.70;99.90
30250;DHT22;17064;47.974;13.826;2023-05-19T03:02:12;7.70;99.90
30250;DHT22;17064;47.974;13.826;2023-05-19T03:07:12;7.70;99.90
30250;DHT22;17064;47.974;13.826;2023-05-19T03:12:14;7.70;99.90
30250;DHT22;17064;47.974;13.826;2023-05-19T03:17:15;7.70;99.90
30250;DHT22;17064;47.974;13.826;2023-05-19T03:22:16;7.70;99.90
30250;DHT22;17064;47.974;13.826;2023-05-19T03:27:20;7.70;99.90
30250;DHT22;17064;47.974;13.826;2023-05-19T03:32:21;7.70;99.90
30250;DHT22;17064;47.974;13.826;2023-05-19T03:37:21;7.70;99.90
30250;DHT22;17064;47.974;13.826;2023-05-19T03:42:22;7.60;99.90
30250;DHT22;17064;47.974;13.826;2023-05-19T03:47:23;7.60;99.90
30250;DHT22;17064;47.974;13.826;2023-05-19T03:52:23;7.60;99.90
30250;DHT22;17064;47.974;13.826;2023-05-19T03:57:24;7.60;99.90
30250;DHT22;17064;47.974;13.826;2023-05-19T04:02:26;7.70;99.90
30250;DHT22;17064;47.974;13.826;2023-05-19T04:07:26;7.70;99.90
30250;DHT22;17064;47.974;13.826;2023-05-19T04:12:27;7.70;99.90
30250;DHT22;17064;47.974;13.826;2023-05-19T04:17:28;7.70;99.90
30250;DHT22;17064;47.974;13.826;2023-05-19T04:22:29;7.80;99.90
30250;DHT22;17064;47.974;13.826;2023-05-19T04:27:29;7.90;99.90
30250;DHT22;17064;47.974;13.826;2023-05-19T04:32:31;7.90;99.90
30250;DHT22;17064;47.974;13.826;2023-05-19T04:37:32;8.00;99.90
30250;DHT22;17064;47.974;13.826;2023-05-19T04:42:32;8.00;99.90
30250;DHT22;17064;47.974;13.826;2023-05-19T04:47:33;8.10;99.90
30250;DHT22;17064;47.974;13.826;2023-05-19T04:52:37;8.10;99.90
30250;DHT22;17064;47.974;13.826;2023-05-19T04:57:38;8.20;99.90
30250;DHT22;17064;47.974;13.826;2023-05-19T05:02:38;8.20;99.90
30250;DHT22;17064;47.974;13.826;2023-05-19T05:07:39;8.20;99.90
30250;DHT22;17064;47.974;13.826;2023-05-19T05:12:40;8.30;99.90
30250;DHT22;17064;47.974;13.826;2023-05-19T05:17:41;8.30;99.90
30250;DHT22;17064;47.974;13.826;2023-05-19T05:22:43;8.40;99.90
30250;DHT22;17064;47.974;13.826;2023-05-19T05:27:43;8.50;99.90
30250;DHT22;17064;47.974;13.826;2023-05-19T05:32:44;8.80;99.90
30250;DHT22;17064;47.974;13.826;2023-05-19T05:37:45;9.10;99.90
30250;DHT22;17064;47.974;13.826;2023-05-19T05:42:46;9.30;99.90
30250;DHT22;17064;47.974;13.826;2023-05-19T05:47:47;9.40;99.90
30250;DHT22;17064;47.974;13.826;2023-05-19T05:52:48;9.50;99.90
30250;DHT22;17064;47.974;13.826;2023-05-19T05:57:50;9.50;99.90
30250;DHT22;17064;47.974;13.826;2023-05-19T06:02:51;9.40;99.90
30250;DHT22;17064;47.974;13.826;2023-05-19T06:07:51;9.40;99.90
30250;DHT22;17064;47.974;13.826;2023-05-19T06:12:52;9.50;99.90
30250;DHT22;17064;47.974;13.826;2023-05-19T06:17:53;9.70;99.90
30250;DHT22;17064;47.974;13.826;2023-05-19T06:22:53;9.70;99.90
30250;DHT22;17064;47.974;13.826;2023-05-19T06:27:55;9.80;99.90
30250;DHT22;17064;47.974;13.826;2023-05-19T06:32:55;9.90;99.90
30250;DHT22;17064;47.974;13.826;2023-05-19T06:37:56;10.00;99.90
30250;DHT22;17064;47.974;13.826;2023-05-19T06:42:57;10.10;99.90
30250;DHT22;17064;47.974;13.826;2023-05-19T06:47:58;10.20;99.90
30250;DHT22;17064;47.974;13.826;2023-05-19T06:52:59;10.30;99.90
30250;DHT22;17064;47.974;13.826;2023-05-19T06:58:01;10.30;99.90
30250;DHT22;17064;47.974;13.826;2023-05-19T07:03:01;10.30;99.90
30250;DHT22;17064;47.974;13.826;2023-05-19T07:08:02;10.40;99.90
30250;DHT22;17064;47.974;13.826;2023-05-19T07:13:04;10.50;99.90
30250;DHT22;17064;47.974;13.826;2023-05-19T07:18:05;10.60;99.90
30250;DHT22;17064;47.974;13.826;2023-05-19T07:23:05;10.80;99.90
30250;DHT22;17064;47.974;13.826;2023-05-19T07:28:06;11.20;99.90
30250;DHT22;17064;47.974;13.826;2023-05-19T07:33:07;11.30;99.90
30250;DHT22;17064;47.974;13.826;2023-05-19T07:38:07;11.30;99.90
30250;DHT22;17064;47.974;13.826;2023-05-19T07:43:08;11.40;99.90
30250;DHT22;17064;47.974;13.826;2023-05-19T07:48:09;11.30;99.90
30250;DHT22;17064;47.974;13.826;2023-05-19T07:53:09;11.20;99.90
30250;DHT22;17064;47.974;13.826;2023-05-19T07:58:10;11.10;99.90
30250;DHT22;17064;47.974;13.826;2023-05-19T08:03:11;11.20;99.90
30250;DHT22;17064;47.974;13.826;2023-05-19T08:08:12;11.30;99.90
30250;DHT22;17064;47.974;13.826;2023-05-19T08:13:16;11.20;99.90
30250;DHT22;17064;47.974;13.826;2023-05-19T08:18:17;11.20;99.90
30250;DHT22;17064;47.974;13.826;2023-05-19T08:23:17;11.20;99.90
30250;DHT22;17064;47.974;13.826;2023-05-19T08:28:18;11.20;99.90
30250;DHT22;17064;47.974;13.826;2023-05-19T08:33:19;11.30;99.90
30250;DHT22;17064;47.974;13.826;2023-05-19T08:38:22;11.30;99.90
30250;DHT22;17064;47.974;13.826;2023-05-19T08:43:23;11.30;99.90
30250;DHT22;17064;47.974;13.826;2023-05-19T08:48:24;11.70;99.90
30250;DHT22;17064;47.974;13.826;2023-05-19T08:53:35;11.90;99.90
30250;DHT22;17064;47.974;13.826;2023-05-19T08:58:40;12.20;99.90
30250;DHT22;17064;47.974;13.826;2023-05-19T09:03:44;12.10;99.90
30250;DHT22;17064;47.974;13.826;2023-05-19T09:08:45;12.30;99.90
30250;DHT22;17064;47.974;13.826;2023-05-19T09:13:46;12.50;99.90
30250;DHT22;17064;47.974;13.826;2023-05-19T09:18:57;12.70;99.90
30250;DHT22;17064;47.974;13.826;2023-05-19T09:24:03;12.90;99.90
30250;DHT22;17064;47.974;13.826;2023-05-19T09:29:12;13.00;99.90
30250;DHT22;17064;47.974;13.826;2023-05-19T09:34:13;13.00;99.90
30250;DHT22;17064;47.974;13.826;2023-05-19T09:39:14;12.90;99.90
30250;DHT22;17064;47.974;13.826;2023-05-19T09:44:22;12.80;99.90
30250;DHT22;17064;47.974;13.826;2023-05-19T09:49:25;13.00;99.90
30250;DHT22;17064;47.974;13.826;2023-05-19T09:54:29;13.10;99.90
30250;DHT22;17064;47.974;13.826;2023-05-19T09:59:31;13.30;99.90
30250;DHT22;17064;47.974;13.826;2023-05-19T10:04:32;13.40;99.90
30250;DHT22;17064;47.974;13.826;2023-05-19T10:09:35;13.30;99.90
30250;DHT22;17064;47.974;13.826;2023-05-19T10:14:37;13.20;99.90
30250;DHT22;17064;47.974;13.826;2023-05-19T10:19:39;13.40;99.90
30250;DHT22;17064;47.974;13.826;2023-05-19T10:24:40;13.70;99.90
30250;DHT22;17064;47.974;13.826;2023-05-19T10:29:47;14.00;99.90
30250;DHT22;17064;47.974;13.826;2023-05-19T10:40:32;14.40;99.90
30250;DHT22;17064;47.974;13.826;2023-05-19T10:45:41;14.40;99.90
30250;DHT22;17064;47.974;13.826;2023-05-19T10:50:46;14.20;99.90
30250;DHT22;17064;47.974;13.826;2023-05-19T10:55:50;14.30;99.90
30250;DHT22;17064;47.974;13.826;2023-05-19T11:00:59;14.60;99.90
30250;DHT22;17064;47.974;13.826;2023-05-19T11:11:17;14.60;99.90
30250;DHT22;17064;47.974;13.826;2023-05-19T11:16:18;14.60;99.90
30250;DHT22;17064;47.974;13.826;2023-05-19T11:21:20;14.70;99.90
30250;DHT22;17064;47.974;13.826;2023-05-19T11:26:39;14.80;99.90
30250;DHT22;17064;47.974;13.826;2023-05-19T11:31:42;15.50;99.90
30250;DHT22;17064;47.974;13.826;2023-05-19T11:36:43;16.30;99.90
30250;DHT22;17064;47.974;13.826;2023-05-19T11:41:44;16.70;99.90
30250;DHT22;17064;47.974;13.826;2023-05-19T11:46:45;17.20;99.90
30250;DHT22;17064;47.974;13.826;2023-05-19T11:51:46;17.50;99.90
30250;DHT22;17064;47.974;13.826;2023-05-19T11:56:47;17.70;99.90
30250;DHT22;17064;47.974;13.826;2023-05-19T12:01:47;17.70;99.90
30250;DHT22;17064;47.974;13.826;2023-05-19T12:06:48;17.90;99.90
30250;DHT22;17064;47.974;13.826;2023-05-19T12:11:54;18.00;99.90
30250;DHT22;17064;47.974;13.826;2023-05-19T12:16:54;18.20;99.90
30250;DHT22;17064;47.974;13.826;2023-05-19T12:21:55;18.50;99.90
30250;DHT22;17064;47.974;13.826;2023-05-19T12:27:24;18.80;99.90
30250;DHT22;17064;47.974;13.826;2023-05-19T12:32:28;18.60;99.90
30250;DHT22;17064;47.974;13.826;2023-05-19T12:37:29;18.20;99.90
30250;DHT22;17064;47.974;13.826;2023-05-19T12:42:30;18.10;99.90
30250;DHT22;17064;47.974;13.826;2023-05-19T12:47:32;18.20;99.90
30250;DHT22;17064;47.974;13.826;2023-05-19T12:52:45;18.30;99.90
30250;DHT22;17064;47.974;13.826;2023-05-19T12:57:51;18.20;99.90
30250;DHT22;17064;47.974;13.826;2023-05-19T13:03:19;18.20;99.90
30250;DHT22;17064;47.974;13.826;2023-05-19T13:08:21;18.00;99.90
30250;DHT22;17064;47.974;13.826;2023-05-19T13:13:23;17.80;99.90
30250;DHT22;17064;47.974;13.826;2023-05-19T13:18:24;17.80;99.90
30250;DHT22;17064;47.974;13.826;2023-05-19T13:23:26;17.60;99.90
30250;DHT22;17064;47.974;13.826;2023-05-19T13:28:27;17.60;99.90
30250;DHT22;17064;47.974;13.826;2023-05-19T13:33:28;17.70;99.90
30250;DHT22;17064;47.974;13.826;2023-05-19T13:38:29;17.90;99.90
30250;DHT22;17064;47.974;13.826;2023-05-19T13:43:30;18.10;99.90
30250;DHT22;17064;47.974;13.826;2023-05-19T13:48:31;18.30;99.90
30250;DHT22;17064;47.974;13.826;2023-05-19T13:53:31;18.40;99.90
30250;DHT22;17064;47.974;13.826;2023-05-19T13:58:34;18.40;99.90
30250;DHT22;17064;47.974;13.826;2023-05-19T14:03:34;18.40;99.90
30250;DHT22;17064;47.974;13.826;2023-05-19T14:08:36;18.50;99.90
30250;DHT22;17064;47.974;13.826;2023-05-19T14:13:37;18.40;99.90
30250;DHT22;17064;47.974;13.826;2023-05-19T14:18:37;18.30;99.90
30250;DHT22;17064;47.974;13.826;2023-05-19T14:23:38;18.20;99.90
30250;DHT22;17064;47.974;13.826;2023-05-19T14:28:39;18.20;99.90
30250;DHT22;17064;47.974;13.826;2023-05-19T14:33:40;18.20;99.90
30250;DHT22;17064;47.974;13.826;2023-05-19T14:38:41;18.10;99.90
30250;DHT22;17064;47.974;13.826;2023-05-19T14:43:41;18.00;99.90
30250;DHT22;17064;47.974;13.826;2023-05-19T14:48:42;18.00;99.90
30250;DHT22;17064;47.974;13.826;2023-05-19T14:53:43;17.90;99.90
30250;DHT22;17064;47.974;13.826;2023-05-19T14:58:43;17.70;99.90
30250;DHT22;17064;47.974;13.826;2023-05-19T15:03:44;17.60;99.90
30250;DHT22;17064;47.974;13.826;2023-05-19T15:08:45;17.50;99.90
30250;DHT22;17064;47.974;13.826;2023-05-19T15:13:46;17.40;99.90
30250;DHT22;17064;47.974;13.826;2023-05-19T15:18:46;17.40;99.90
30250;DHT22;17064;47.974;13.826;2023-05-19T15:23:47;17.50;99.90
30250;DHT22;17064;47.974;13.826;2023-05-19T15:28:48;17.60;99.90
30250;DHT22;17064;47.974;13.826;2023-05-19T15:33:49;17.60;99.90
30250;DHT22;17064;47.974;13.826;2023-05-19T15:38:49;17.70;99.90
30250;DHT22;17064;47.974;13.826;2023-05-19T15:43:50;18.00;99.90
30250;DHT22;17064;47.974;13.826;2023-05-19T15:48:51;18.40;99.90
30250;DHT22;17064;47.974;13.826;2023-05-19T15:53:51;18.70;99.90
30250;DHT22;17064;47.974;13.826;2023-05-19T15:58:52;18.90;99.90
30250;DHT22;17064;47.974;13.826;2023-05-19T16:03:53;19.00;99.90
30250;DHT22;17064;47.974;13.826;2023-05-19T16:08:54;19.00;99.90
30250;DHT22;17064;47.974;13.826;2023-05-19T16:13:55;18.90;99.90
30250;DHT22;17064;47.974;13.826;2023-05-19T16:18:55;18.80;99.90
30250;DHT22;17064;47.974;13.826;2023-05-19T16:23:56;18.70;99.90
30250;DHT22;17064;47.974;13.826;2023-05-19T16:28:57;18.50;99.90
30250;DHT22;17064;47.974;13.826;2023-05-19T16:33:58;18.30;99.90
30250;DHT22;17064;47.974;13.826;2023-05-19T16:38:58;18.00;99.90
30250;DHT22;17064;47.974;13.826;2023-05-19T16:43:59;17.70;99.90
30250;DHT22;17064;47.974;13.826;2023-05-19T16:49:01;17.50;99.90
30250;DHT22;17064;47.974;13.826;2023-05-19T16:54:02;17.30;99.90
30250;DHT22;17064;47.974;13.826;2023-05-19T16:59:03;17.20;99.90
30250;DHT22;17064;47.974;13.826;2023-05-19T17:04:04;17.10;99.90
30250;DHT22;17064;47.974;13.826;2023-05-19T17:09:05;17.00;99.90
30250;DHT22;17064;47.974;13.826;2023-05-19T17:14:05;16.90;99.90
30250;DHT22;17064;47.974;13.826;2023-05-19T17:19:09;16.80;99.90
30250;DHT22;17064;47.974;13.826;2023-05-19T17:24:10;16.70;99.90
30250;DHT22;17064;47.974;13.826;2023-05-19T17:29:11;16.50;99.90
30250;DHT22;17064;47.974;13.826;2023-05-19T17:34:11;16.30;99.90
30250;DHT22;17064;47.974;13.826;2023-05-19T17:39:12;16.10;99.90
30250;DHT22;17064;47.974;13.826;2023-05-19T17:44:13;16.00;99.90
30250;DHT22;17064;47.974;13.826;2023-05-19T17:49:14;15.80;99.90
30250;DHT22;17064;47.974;13.826;2023-05-19T17:54:15;15.60;99.90
30250;DHT22;17064;47.974;13.826;2023-05-19T17:59:16;15.40;99.90
30250;DHT22;17064;47.974;13.826;2023-05-19T18:04:17;15.30;99.90
30250;DHT22;17064;47.974;13.826;2023-05-19T18:09:18;15.20;99.90
30250;DHT22;17064;47.974;13.826;2023-05-19T18:14:19;15.00;99.90
30250;DHT22;17064;47.974;13.826;2023-05-19T18:19:20;14.90;99.90
30250;DHT22;17064;47.974;13.826;2023-05-19T18:24:21;14.80;99.90
30250;DHT22;17064;47.974;13.826;2023-05-19T18:29:21;14.60;99.90
30250;DHT22;17064;47.974;13.826;2023-05-19T18:34:22;14.40;99.90
30250;DHT22;17064;47.974;13.826;2023-05-19T18:39:23;14.30;99.90
30250;DHT22;17064;47.974;13.826;2023-05-19T18:44:23;14.20;99.90
30250;DHT22;17064;47.974;13.826;2023-05-19T18:49:24;14.10;99.90
30250;DHT22;17064;47.974;13.826;2023-05-19T18:54:25;14.00;99.90
30250;DHT22;17064;47.974;13.826;2023-05-19T18:59:26;13.90;99.90
30250;DHT22;17064;47.974;13.826;2023-05-19T19:04:27;13.90;99.90
30250;DHT22;17064;47.974;13.826;2023-05-19T19:09:27;13.80;99.90
30250;DHT22;17064;47.974;13.826;2023-05-19T19:14:28;13.80;99.90
30250;DHT22;17064;47.974;13.826;2023-05-19T19:19:29;13.70;99.90
30250;DHT22;17064;47.974;13.826;2023-05-19T19:24:29;13.70;99.90
30250;DHT22;17064;47.974;13.826;2023-05-19T19:29:31;13.60;99.90
30250;DHT22;17064;47.974;13.826;2023-05-19T19:34:32;13.50;99.90
30250;DHT22;17064;47.974;13.826;2023-05-19T19:39:33;13.40;99.90
30250;DHT22;17064;47.974;13.826;2023-05-19T19:44:34;13.30;99.90
30250;DHT22;17064;47.974;13.826;2023-05-19T19:49:34;13.20;99.90
30250;DHT22;17064;47.974;13.826;2023-05-19T19:54:35;13.10;99.90
30250;DHT22;17064;47.974;13.826;2023-05-19T19:59:36;13.10;99.90
30250;DHT22;17064;47.974;13.826;2023-05-19T20:04:40;12.90;99.90
30250;DHT22;17064;47.974;13.826;2023-05-19T20:09:40;12.80;99.90
30250;DHT22;17064;47.974;13.826;2023-05-19T20:14:41;12.70;99.90
30250;DHT22;17064;47.974;13.826;2023-05-19T20:19:42;12.70;99.90
30250;DHT22;17064;47.974;13.826;2023-05-19T20:24:43;12.60;99.90
30250;DHT22;17064;47.974;13.826;2023-05-19T20:29:43;12.60;99.90
30250;DHT22;17064;47.974;13.826;2023-05-19T20:34:46;12.50;99.90
30250;DHT22;17064;47.974;13.826;2023-05-19T20:39:47;12.40;99.90
30250;DHT22;17064;47.974;13.826;2023-05-19T20:44:47;12.30;99.90
30250;DHT22;17064;47.974;13.826;2023-05-19T20:49:48;12.20;99.90
30250;DHT22;17064;47.974;13.826;2023-05-19T20:54:49;12.20;99.90
30250;DHT22;17064;47.974;13.826;2023-05-19T20:59:49;12.10;99.90
30250;DHT22;17064;47.974;13.826;2023-05-19T21:04:50;12.10;99.90
30250;DHT22;17064;47.974;13.826;2023-05-19T21:09:51;12.00;99.90
30250;DHT22;17064;47.974;13.826;2023-05-19T21:14:53;11.90;99.90
30250;DHT22;17064;47.974;13.826;2023-05-19T21:19:54;11.80;99.90
30250;DHT22;17064;47.974;13.826;2023-05-19T21:24:58;11.70;99.90
30250;DHT22;17064;47.974;13.826;2023-05-19T21:29:59;11.60;99.90
30250;DHT22;17064;47.974;13.826;2023-05-19T21:35:00;11.50;99.90
30250;DHT22;17064;47.974;13.826;2023-05-19T21:40:01;11.50;99.90
30250;DHT22;17064;47.974;13.826;2023-05-19T21:45:02;11.40;99.90
30250;DHT22;17064;47.974;13.826;2023-05-19T21:50:03;11.40;99.90
30250;DHT22;17064;47.974;13.826;2023-05-19T21:55:04;11.30;99.90
30250;DHT22;17064;47.974;13.826;2023-05-19T22:00:06;11.10;99.90
30250;DHT22;17064;47.974;13.826;2023-05-19T22:05:07;11.00;99.90
30250;DHT22;17064;47.974;13.826;2023-05-19T22:10:09;11.00;99.90
30250;DHT22;17064;47.974;13.826;2023-05-19T22:15:10;10.90;99.90
30250;DHT22;17064;47.974;13.826;2023-05-19T22:20:12;10.90;99.90
30250;DHT22;17064;47.974;13.826;2023-05-19T22:25:13;10.80;99.90
30250;DHT22;17064;47.974;13.826;2023-05-19T22:30:14;10.80;99.90
30250;DHT22;17064;47.974;13.826;2023-05-19T22:35:15;10.80;99.90
30250;DHT22;17064;47.974;13.826;2023-05-19T22:40:15;10.70;99.90
30250;DHT22;17064;47.974;13.826;2023-05-19T22:45:17;10.60;99.90
30250;DHT22;17064;47.974;13.826;2023-05-19T22:50:18;10.50;99.90
30250;DHT22;17064;47.974;13.826;2023-05-19T22:55:19;10.40;99.90
30250;DHT22;17064;47.974;13.826;2023-05-19T23:00:20;10.30;99.90
30250;DHT22;17064;47.974;13.826;2023-05-19T23:05:21;10.10;99.90
30250;DHT22;17064;47.974;13.826;2023-05-19T23:10:21;10.00;99.90
30250;DHT22;17064;47.974;13.826;2023-05-19T23:15:22;9.90;99.90
30250;DHT22;17064;47.974;13.826;2023-05-19T23:20:23;9.80;99.90
30250;DHT22;17064;47.974;13.826;2023-05-19T23:25:24;9.70;99.90
30250;DHT22;17064;47.974;13.826;2023-05-19T23:30:24;9.60;99.90
30250;DHT22;17064;47.974;13.826;2023-05-19T23:35:25;9.60;99.90
30250;DHT22;17064;47.974;13.826;2023-05-19T23:40:26;9.50;99.90
30250;DHT22;17064;47.974;13.826;2023-05-19T23:45:26;9.50;99.90
30250;DHT22;17064;47.974;13.826;2023-05-19T23:50:27;9.60;99.90
30250;DHT22;17064;47.974;13.826;2023-05-19T23:55:28;9.60;99.90
